Time;durP1;ratioP1;P1;durP2;ratioP2;P2;SDS_P1;SDS_P2;PMS_P1;PMS_P2;Temp;Humidity;BMP_temperature;BMP_pressure;BME280_temperature;BME280_humidity;BME280_pressure;Samples;Min_cycle;Max_cycle;Signal;HPM_P1;HPM_P2
2022/07/20 00:02:31;;;;;;;15.13;5.83;;;;;;;16.75;78.40;99504.64;3851848;89;22054;-83
2022/07/20 00:15:07;;;;;;;13.22;5.80;;;;;;;16.67;79.32;99511.39;3838163;91;21103;-83
2022/07/20 00:21:16;;;;;;;9.68;5.50;;;;;;;16.65;79.47;99508.23;3842200;91;21064;-83
2022/07/20 00:27:20;;;;;;;12.70;5.92;;;;;;;16.63;79.68;99502.34;3823282;92;21072;-82
2022/07/20 00:33:23;;;;;;;8.78;5.47;;;;;;;16.52;79.94;99499.61;3842429;91;21067;-83
2022/07/20 00:39:27;;;;;;;10.48;5.22;;;;;;;16.40;80.41;99502.81;3820370;91;21095;-85
2022/07/20 00:45:28;;;;;;;8.03;5.40;;;;;;;16.26;80.72;99499.30;3839839;91;21093;-83
2022/07/20 00:51:32;;;;;;;9.45;6.15;;;;;;;16.18;81.02;99499.13;3840553;91;21073;-83
2022/07/20 00:57:40;;;;;;;12.33;5.80;;;;;;;16.17;81.15;99497.56;3839993;91;21546;-84
2022/07/20 01:03:47;;;;;;;11.00;5.67;;;;;;;16.07;81.53;99501.17;3850291;91;21657;-83
2022/07/20 01:09:57;;;;;;;9.58;5.45;;;;;;;16.01;81.77;99502.16;3859716;91;21126;-84
2022/07/20 01:16:04;;;;;;;12.13;5.55;;;;;;;15.92;82.10;99498.23;3841975;91;21065;-83
2022/07/20 01:22:07;;;;;;;9.75;4.78;;;;;;;15.87;82.33;99502.19;3864524;91;21053;-83
2022/07/20 01:28:13;;;;;;;9.00;5.85;;;;;;;15.78;82.68;99498.26;3863046;91;21069;-83
2022/07/20 01:34:15;;;;;;;11.40;5.10;;;;;;;15.80;82.95;99498.66;3863725;91;21137;-83
2022/07/20 01:40:16;;;;;;;8.95;5.83;;;;;;;15.76;83.18;99503.38;3839862;91;21669;-84
2022/07/20 01:46:18;;;;;;;11.50;6.05;;;;;;;15.69;83.26;99502.83;3862678;91;22384;-83
2022/07/20 01:52:21;;;;;;;11.68;6.05;;;;;;;15.64;83.36;99501.84;3841061;91;21021;-84
2022/07/20 01:58:25;;;;;;;10.70;5.50;;;;;;;15.49;83.68;99505.78;3865333;91;21078;-83
2022/07/20 02:04:33;;;;;;;12.63;6.05;;;;;;;15.43;83.83;99507.36;3863055;91;21102;-83
2022/07/20 02:10:42;;;;;;;10.95;5.62;;;;;;;15.35;84.06;99502.99;3863661;91;21755;-84
2022/07/20 02:16:50;;;;;;;9.88;6.08;;;;;;;15.23;84.41;99511.08;3863439;91;21081;-83
2022/07/20 02:22:55;;;;;;;7.83;5.42;;;;;;;15.28;85.03;99508.52;3797678;92;21093;-83
2022/07/20 02:29:03;;;;;;;10.08;4.28;;;;;;;15.23;84.78;99503.39;3864750;91;21123;-83
2022/07/20 02:35:08;;;;;;;9.28;4.05;;;;;;;15.16;85.21;99513.82;3863039;91;21068;-83
2022/07/20 02:41:14;;;;;;;11.90;5.97;;;;;;;15.23;85.25;99515.80;3869463;91;21083;-83
2022/07/20 02:47:22;;;;;;;10.03;5.40;;;;;;;15.23;85.33;99506.95;3864777;91;21033;-82
2022/07/20 02:53:28;;;;;;;8.73;4.85;;;;;;;15.21;85.30;99509.88;3842814;91;21656;-83
2022/07/20 02:59:30;;;;;;;8.38;4.05;;;;;;;15.04;85.69;99510.08;3862874;91;21103;-83
2022/07/20 03:05:36;;;;;;;12.60;4.87;;;;;;;14.96;85.84;99513.20;3857896;90;21435;-84
2022/07/20 03:11:40;;;;;;;;;;;;;;;14.91;86.01;99510.86;3859356;91;21147;-83
2022/07/20 03:17:55;;;;;;;12.43;4.67;;;;;;;14.84;86.88;99506.69;3859572;92;20127;-82
2022/07/20 03:24:07;;;;;;;7.42;4.78;;;;;;;14.83;86.73;99510.64;3854928;90;21049;-84
2022/07/20 03:30:16;;;;;;;7.28;4.58;;;;;;;14.95;87.03;99510.26;3856332;90;21170;-82
2022/07/20 03:36:26;;;;;;;9.28;4.75;;;;;;;15.03;86.90;99529.77;3857088;90;21068;-82
2022/07/20 03:42:35;;;;;;;7.28;4.60;;;;;;;15.00;86.98;99530.55;3857116;90;22082;-83
2022/07/20 03:48:38;;;;;;;10.20;4.85;;;;;;;14.98;87.19;99529.57;3845063;90;21162;-83
2022/07/20 03:54:39;;;;;;;7.85;4.30;;;;;;;15.16;87.57;99538.64;3857087;90;22220;-83
2022/07/20 04:00:41;;;;;;;8.48;5.22;;;;;;;15.37;87.41;99543.39;3856840;90;21711;-82
2022/07/20 04:06:45;;;;;;;11.53;5.20;;;;;;;15.46;87.09;99541.85;3880858;90;21109;-83
2022/07/20 04:12:47;;;;;;;13.25;5.53;;;;;;;15.52;87.15;99538.89;3877020;90;21067;-82
2022/07/20 04:18:50;;;;;;;6.97;4.60;;;;;;;15.65;87.05;99540.08;3871435;90;21052;-81
2022/07/20 04:24:52;;;;;;;7.95;5.28;;;;;;;15.76;86.90;99547.55;3871554;90;21178;-82
2022/07/20 04:30:53;;;;;;;11.78;5.20;;;;;;;15.85;86.93;99545.19;3877750;90;21098;-84
2022/07/20 04:36:55;;;;;;;9.73;5.22;;;;;;;15.93;86.82;99549.52;3876673;90;21091;-83
2022/07/20 04:42:56;;;;;;;10.43;4.75;;;;;;;16.04;86.78;99552.44;3876761;90;21111;-83
2022/07/20 04:48:59;;;;;;;12.37;4.80;;;;;;;16.14;86.64;99554.41;3876811;90;21044;-83
2022/07/20 04:55:10;;;;;;;8.63;5.17;;;;;;;16.27;86.56;99548.63;3875533;90;21040;-83
2022/07/20 05:01:16;;;;;;;7.50;4.67;;;;;;;16.43;86.50;99552.33;3912165;87;43383;-83
2022/07/20 05:07:20;;;;;;;7.90;4.73;;;;;;;16.57;86.42;99556.48;3967602;88;21089;-83
2022/07/20 05:13:24;;;;;;;9.75;4.67;;;;;;;16.71;86.46;99564.70;3956158;88;21158;-83
2022/07/20 05:19:26;;;;;;;10.63;4.58;;;;;;;16.91;86.42;99551.96;3970135;88;21095;-83
2022/07/20 05:25:31;;;;;;;7.83;4.37;;;;;;;17.11;86.54;99549.66;3971546;88;21012;-83
2022/07/20 05:31:36;;;;;;;9.58;4.53;;;;;;;17.33;86.47;99559.19;3953152;88;21176;-83
2022/07/20 05:37:49;;;;;;;5.42;3.90;;;;;;;17.59;86.22;99560.80;3961767;88;21157;-84
2022/07/20 05:43:59;;;;;;;10.23;4.00;;;;;;;17.95;85.95;99562.06;3957070;88;21115;-85
2022/07/20 05:50:04;;;;;;;7.80;3.87;;;;;;;18.22;85.41;99562.19;3968172;88;21990;-84
2022/07/20 05:56:08;;;;;;;6.20;3.92;;;;;;;18.46;84.93;99563.94;3958246;89;21063;-83
2022/07/20 06:02:13;;;;;;;13.72;4.62;;;;;;;18.68;84.08;99578.50;3968703;86;21130;-86
2022/07/20 06:08:20;;;;;;;5.70;3.55;;;;;;;18.90;83.92;99574.08;3943365;89;21074;-83
2022/07/20 06:14:24;;;;;;;7.95;4.10;;;;;;;19.11;83.55;99567.63;3924053;89;21117;-83
2022/07/20 06:20:36;;;;;;;11.45;3.67;;;;;;;19.38;83.13;99581.55;3950799;89;21074;-83
2022/07/20 06:26:45;;;;;;;8.03;4.17;;;;;;;19.65;82.84;99584.50;3947725;89;21637;-85
2022/07/20 06:32:57;;;;;;;9.78;5.12;;;;;;;19.93;82.15;99592.96;3958661;89;21063;-82
2022/07/20 06:39:14;;;;;;;8.98;4.35;;;;;;;20.23;81.61;99590.84;3882325;90;21138;-84
2022/07/20 06:45:26;;;;;;;14.07;5.15;;;;;;;20.59;81.30;99588.19;3821393;92;22327;-83
2022/07/20 06:51:40;;;;;;;10.32;5.22;;;;;;;20.93;80.90;99590.06;3859826;90;21599;-83
2022/07/20 06:57:57;;;;;;;9.00;4.83;;;;;;;21.34;80.83;99588.98;3944996;89;21078;-83
2022/07/20 07:04:32;;;;;;;10.23;4.67;;;;;;;21.96;80.19;99585.70;3959715;87;21103;-84
2022/07/20 07:10:37;;;;;;;9.60;5.10;;;;;;;22.76;79.17;99584.14;3992207;87;21080;-84
2022/07/20 07:16:50;;;;;;;18.52;6.22;;;;;;;23.46;77.46;99578.47;4000158;88;21063;-83
2022/07/20 07:22:53;;;;;;;18.80;7.58;;;;;;;24.09;76.63;99584.77;3983700;88;21095;-84
2022/07/20 07:29:03;;;;;;;17.35;6.20;;;;;;;24.67;75.18;99580.95;4000971;87;21003;-85
2022/07/20 07:35:15;;;;;;;15.55;5.78;;;;;;;25.31;74.09;99576.65;3991540;88;21489;-85
2022/07/20 07:41:23;;;;;;;13.03;5.70;;;;;;;25.84;72.46;99585.12;3999275;88;21527;-85
2022/07/20 07:47:48;;;;;;;;;;;;;;;26.34;71.15;99583.84;4003582;87;21547;-85
2022/07/20 08:00:21;;;;;;;10.32;4.42;;;;;;;27.28;68.31;99590.63;3993965;88;21930;-85
2022/07/20 08:06:25;;;;;;;7.92;3.95;;;;;;;27.73;66.99;99587.63;3995407;88;21579;-85
2022/07/20 08:12:30;;;;;;;12.15;4.60;;;;;;;27.88;63.93;99585.68;4001910;87;21079;-85
2022/07/20 08:18:47;;;;;;;8.30;4.15;;;;;;;27.98;62.36;99585.79;4000531;88;21942;-86
2022/07/20 08:25:06;;;;;;;12.10;3.90;;;;;;;27.98;60.95;99580.16;3997566;88;21051;-85
2022/07/20 08:31:19;;;;;;;8.38;3.58;;;;;;;28.06;59.50;99577.77;4000134;88;22027;-85
2022/07/20 08:37:48;;;;;;;7.45;3.42;;;;;;;28.20;57.80;99575.63;3984081;88;21098;-85
2022/07/20 08:44:03;;;;;;;4.15;2.83;;;;;;;28.26;56.55;99573.70;3968514;88;21043;-85
2022/07/20 08:50:10;;;;;;;7.20;3.62;;;;;;;28.51;56.42;99569.78;4001627;88;21511;-85
2022/07/20 08:56:21;;;;;;;6.43;3.10;;;;;;;28.73;54.61;99568.01;3994417;88;21079;-86
2022/07/20 09:02:29;;;;;;;7.08;3.05;;;;;;;28.67;53.39;99569.33;3986189;88;21039;-85
2022/07/20 09:09:05;;;;;;;6.25;2.95;;;;;;;28.67;52.29;99562.28;4008155;87;21016;-85
2022/07/20 09:15:32;;;;;;;5.65;2.62;;;;;;;28.87;51.64;99560.98;3980064;87;21034;-84
2022/07/20 09:21:39;;;;;;;8.63;3.45;;;;;;;28.98;49.74;99564.00;4024528;87;21020;-84
2022/07/20 09:27:42;;;;;;;;;;;;;;;29.22;47.94;99559.69;4008206;87;21093;-84
2022/07/20 09:34:05;;;;;;;5.90;3.08;;;;;;;29.48;45.71;99550.73;3986315;88;20166;-85
2022/07/20 09:40:20;;;;;;;4.85;2.95;;;;;;;29.72;47.41;99544.97;4011178;88;21219;-86
2022/07/20 09:46:36;;;;;;;4.45;2.80;;;;;;;30.17;46.20;99542.87;3874263;92;21072;-86
2022/07/20 09:59:06;;;;;;;6.05;3.62;;;;;;;31.04;43.65;99530.99;4004634;87;21084;-86
2022/07/20 10:05:10;;;;;;;5.70;3.42;;;;;;;31.56;43.07;99538.11;3994662;87;21749;-85
2022/07/20 10:11:30;;;;;;;4.17;2.70;;;;;;;32.03;41.95;99535.84;4013050;87;21063;-86
2022/07/20 10:17:50;;;;;;;3.80;2.70;;;;;;;32.40;40.70;99532.27;4008333;88;21058;-86
2022/07/20 10:24:30;;;;;;;5.30;2.75;;;;;;;32.43;39.56;99529.20;3956989;89;21513;-86
2022/07/20 10:31:08;;;;;;;5.92;2.55;;;;;;;32.46;38.34;99523.14;3991344;87;21072;-83
2022/07/20 10:37:39;;;;;;;4.40;2.40;;;;;;;32.48;34.96;99521.33;4008973;87;21107;-84
2022/07/20 10:44:29;;;;;;;6.95;3.50;;;;;;;32.78;35.84;99521.67;3995554;87;21011;-86
2022/07/20 10:51:04;;;;;;;5.33;2.45;;;;;;;33.18;36.52;99523.39;4003780;89;21154;-86
2022/07/20 10:57:13;;;;;;;4.33;3.02;;;;;;;33.41;36.32;99517.73;3994384;88;21012;-87
2022/07/20 11:03:27;;;;;;;4.20;2.83;;;;;;;33.58;35.16;99513.55;3995455;88;21126;-84
2022/07/20 11:16:02;;;;;;;3.80;2.67;;;;;;;34.19;34.36;99510.55;3989476;87;21058;-86
2022/07/20 11:22:24;;;;;;;6.28;3.02;;;;;;;34.80;34.23;99503.84;3918307;89;21091;-85
2022/07/20 11:28:49;;;;;;;5.92;2.70;;;;;;;35.17;33.60;99499.84;3951435;87;21122;-87
2022/07/20 11:35:05;;;;;;;5.60;2.72;;;;;;;35.43;33.00;99495.85;4010369;87;21094;-86
2022/07/20 11:41:58;;;;;;;3.45;2.65;;;;;;;35.46;32.61;99491.19;3991601;87;21043;-86
2022/07/20 11:48:16;;;;;;;5.62;2.60;;;;;;;35.61;32.74;99488.68;4003128;87;21062;-86
2022/07/20 11:54:22;;;;;;;7.53;2.65;;;;;;;35.55;32.72;99487.98;4012631;89;20987;-86
2022/07/20 12:00:32;;;;;;;4.05;2.80;;;;;;;35.43;30.01;99477.98;4014759;87;21011;-86
2022/07/20 12:06:40;;;;;;;6.00;2.47;;;;;;;35.42;28.41;99477.23;3947512;89;21154;-86
2022/07/20 12:13:21;;;;;;;7.75;2.72;;;;;;;34.95;30.48;99475.06;3877659;90;21073;-86
2022/07/20 12:26:37;;;;;;;3.62;2.52;;;;;;;34.31;30.66;99466.55;3876164;90;21120;-86
2022/07/20 12:33:19;;;;;;;6.80;3.27;;;;;;;33.85;30.95;99463.01;3881155;90;21068;-86
2022/07/20 12:39:48;;;;;;;7.05;2.90;;;;;;;33.40;31.68;99458.77;3891373;89;22379;-85
2022/07/20 12:46:05;;;;;;;4.87;3.02;;;;;;;33.13;30.99;99460.97;4007038;87;21043;-85
2022/07/20 12:52:15;;;;;;;5.35;2.87;;;;;;;32.56;31.28;99452.20;4004953;87;21101;-85
2022/07/20 12:58:23;;;;;;;4.92;3.20;;;;;;;32.25;32.00;99450.30;4014409;87;21107;-85
2022/07/20 13:04:43;;;;;;;7.17;3.10;;;;;;;31.98;32.50;99460.14;4021954;87;21052;-86
2022/07/20 13:11:07;;;;;;;6.40;3.30;;;;;;;31.85;32.68;99459.97;3995263;87;21017;-85
2022/07/20 13:17:22;;;;;;;4.08;2.70;;;;;;;31.77;32.52;99458.09;4010388;87;21398;-86
2022/07/20 13:23:31;;;;;;;11.43;2.83;;;;;;;31.70;32.70;99447.23;4011749;87;21082;-85
2022/07/20 13:30:12;;;;;;;5.70;2.85;;;;;;;31.68;32.80;99447.74;3934253;86;5351416;-86
2022/07/20 13:36:21;;;;;;;7.25;2.95;;;;;;;31.59;33.16;99436.64;3898676;88;21079;-85
2022/07/20 13:42:33;;;;;;;4.55;2.90;;;;;;;31.44;32.58;99432.45;3894755;90;21084;-85
2022/07/20 13:48:51;;;;;;;4.40;2.80;;;;;;;31.42;32.89;99420.86;3835692;90;21711;-85
2022/07/20 13:55:12;;;;;;;4.20;2.80;;;;;;;31.39;33.29;99419.05;3998989;89;21003;-85
2022/07/20 14:01:44;;;;;;;4.35;2.70;;;;;;;31.33;33.98;99414.79;3939759;90;21545;-85
2022/07/20 14:08:06;;;;;;;5.30;3.15;;;;;;;31.26;34.13;99403.16;3974404;87;21153;-86
2022/07/20 14:15:12;;;;;;;5.75;3.22;;;;;;;31.21;34.30;99402.47;3951485;89;21086;-86
2022/07/20 14:21:29;;;;;;;6.33;3.30;;;;;;;31.17;34.21;99398.46;3949510;88;21198;-86
2022/07/20 14:27:32;;;;;;;5.20;3.50;;;;;;;31.10;34.91;99393.29;3957449;89;21165;-85
2022/07/20 14:33:53;;;;;;;6.15;3.08;;;;;;;31.04;34.98;99391.70;3947106;89;21158;-86
2022/07/20 14:40:15;;;;;;;5.37;3.65;;;;;;;30.91;35.08;99385.06;4006910;87;21046;-86
2022/07/20 14:46:32;;;;;;;6.20;3.52;;;;;;;30.84;35.15;99379.86;4037045;87;22275;-85
2022/07/20 14:52:46;;;;;;;10.58;3.58;;;;;;;30.79;35.45;99374.19;4035847;87;21422;-86
2022/07/20 14:59:07;;;;;;;4.92;3.40;;;;;;;30.74;36.23;99371.43;3809734;90;21209;-83
2022/07/20 15:05:27;;;;;;;7.90;3.55;;;;;;;30.82;33.99;99364.70;3872713;90;21666;-85
2022/07/20 15:11:52;;;;;;;11.03;3.85;;;;;;;30.98;33.79;99365.45;3900324;89;21576;-86
2022/07/20 15:18:16;;;;;;;5.17;3.17;;;;;;;30.82;35.00;99362.66;3897135;89;21024;-85
2022/07/20 15:24:17;;;;;;;7.08;3.98;;;;;;;30.68;35.29;99355.05;4044690;86;21736;-85
2022/07/20 15:30:27;;;;;;;8.90;3.58;;;;;;;30.60;35.53;99351.79;4014465;87;21511;-86
2022/07/20 15:36:56;;;;;;;4.35;2.98;;;;;;;30.53;35.83;99356.62;4083546;86;21013;-85
2022/07/20 15:43:14;;;;;;;6.30;3.20;;;;;;;30.44;35.71;99347.56;4080876;86;21149;-85
2022/07/20 15:49:33;;;;;;;6.78;3.42;;;;;;;30.32;35.90;99345.92;4082103;86;21542;-85
2022/07/20 15:56:04;;;;;;;6.85;3.33;;;;;;;30.21;35.64;99345.83;4080967;86;21535;-86
2022/07/20 16:02:50;;;;;;;12.05;3.47;;;;;;;30.13;35.97;99343.28;4084609;86;21081;-86
2022/07/20 16:09:06;;;;;;;4.20;3.62;;;;;;;29.98;36.27;99342.60;4067132;86;21129;-86
2022/07/20 16:28:45;;;;;;;6.22;3.45;;;;;;;29.66;36.26;99336.10;4031517;87;21073;-86
2022/07/20 16:34:48;;;;;;;6.87;3.70;;;;;;;29.57;36.52;99336.23;4034197;87;21566;-84
2022/07/20 16:40:50;;;;;;;6.33;3.45;;;;;;;29.46;36.65;99336.10;4037456;87;21052;-86
2022/07/20 16:53:35;;;;;;;6.12;3.37;;;;;;;29.21;37.09;99345.27;4030180;87;21038;-85
2022/07/20 16:59:44;;;;;;;6.60;3.87;;;;;;;29.08;37.15;99344.20;4038576;87;21026;-85
2022/07/20 17:06:00;;;;;;;6.12;3.87;;;;;;;28.99;37.46;99338.67;3907341;89;21173;-85
2022/07/20 17:12:01;;;;;;;6.72;3.30;;;;;;;28.89;37.61;99337.89;3947035;89;21650;-85
2022/07/20 17:18:18;;;;;;;5.60;3.72;;;;;;;28.78;37.74;99342.73;3828844;92;21596;-85
2022/07/20 17:24:31;;;;;;;4.60;3.40;;;;;;;28.69;38.01;99342.08;3914806;89;21134;-85
2022/07/20 17:30:50;;;;;;;6.65;3.55;;;;;;;28.58;38.32;99342.66;3911430;89;21112;-85
2022/07/20 17:36:58;;;;;;;7.65;4.30;;;;;;;28.46;38.62;99331.68;3830668;92;21127;-85
2022/07/20 17:42:59;;;;;;;6.92;4.20;;;;;;;28.33;38.99;99334.05;4022785;86;21016;-84
2022/07/20 17:55:40;;;;;;;5.35;3.72;;;;;;;27.95;40.20;99322.27;4051261;86;21040;-85
2022/07/20 18:01:48;;;;;;;6.60;4.08;;;;;;;27.76;40.65;99328.50;4051264;86;21089;-85
2022/07/20 18:08:23;;;;;;;7.60;3.80;;;;;;;27.58;41.19;99330.22;4052464;86;21052;-85
2022/07/20 18:14:57;;;;;;;10.85;4.70;;;;;;;27.35;41.81;99328.23;4048441;86;21070;-85
2022/07/20 18:21:10;;;;;;;126.78;17.60;;;;;;;27.08;42.71;99326.20;3949196;89;21072;-84
2022/07/20 18:27:14;;;;;;;20.15;5.67;;;;;;;26.79;43.83;99330.29;4058156;86;21649;-84
2022/07/20 18:33:27;;;;;;;8.98;4.95;;;;;;;26.46;44.60;99330.87;4017588;87;21170;-85
2022/07/20 18:39:40;;;;;;;20.60;11.25;;;;;;;26.16;45.48;99320.06;3953114;87;21087;-84
2022/07/20 18:45:57;;;;;;;17.52;10.23;;;;;;;25.88;46.45;99324.16;4050640;86;21113;-83
2022/07/20 18:51:58;;;;;;;18.37;9.85;;;;;;;25.61;47.33;99326.37;3949472;89;21075;-84
2022/07/20 18:58:26;;;;;;;16.17;9.18;;;;;;;25.39;48.26;99333.36;4019196;87;21040;-83
2022/07/20 19:04:45;;;;;;;14.28;8.95;;;;;;;25.09;49.09;99346.22;4036608;86;21040;-84
2022/07/20 19:11:12;;;;;;;13.95;9.18;;;;;;;24.76;50.21;99341.00;3945185;90;21094;-84
2022/07/20 19:17:21;;;;;;;18.02;9.30;;;;;;;24.40;50.92;99352.05;4085208;85;21065;-84
2022/07/20 19:23:37;;;;;;;12.58;8.45;;;;;;;24.05;52.12;99352.80;3949413;89;21058;-84
2022/07/20 19:29:51;;;;;;;14.93;8.73;;;;;;;23.80;52.98;99360.50;4016642;87;21056;-84
2022/07/20 19:35:53;;;;;;;12.82;8.78;;;;;;;23.62;53.95;99365.33;4052977;86;21053;-85
2022/07/20 19:41:54;;;;;;;17.17;10.03;;;;;;;23.38;54.57;99372.59;4015264;87;21591;-84
2022/07/20 19:48:03;;;;;;;19.20;10.75;;;;;;;23.23;55.07;99373.65;4018420;87;21152;-84
2022/07/20 19:54:12;;;;;;;15.48;10.43;;;;;;;23.15;55.54;99356.17;4016794;87;21026;-84
2022/07/20 20:00:13;;;;;;;20.25;11.40;;;;;;;22.98;56.00;99359.73;4015666;87;21079;-85
2022/07/20 20:06:29;;;;;;;19.07;11.68;;;;;;;22.71;57.12;99370.59;4018583;87;21569;-85
2022/07/20 20:12:59;;;;;;;16.77;10.50;;;;;;;22.53;57.69;99379.35;4013717;87;21087;-85
2022/07/20 20:31:40;;;;;;;16.93;10.55;;;;;;;22.04;59.98;99362.68;4055126;86;21029;-85
2022/07/20 20:38:06;;;;;;;21.62;10.75;;;;;;;21.79;60.40;99364.80;3937223;89;21089;-85
2022/07/20 20:44:27;;;;;;;16.63;11.67;;;;;;;21.59;60.79;99371.11;3948141;89;21127;-84
2022/07/20 20:50:30;;;;;;;28.17;18.98;;;;;;;21.35;61.73;99364.98;4052646;86;21057;-83
2022/07/20 20:56:32;;;;;;;25.08;15.23;;;;;;;21.21;62.18;99357.59;4020537;87;21171;-84
2022/07/20 21:02:40;;;;;;;32.63;19.87;;;;;;;21.05;63.18;99359.00;4018461;87;21072;-84
2022/07/20 21:08:52;;;;;;;33.73;19.75;;;;;;;20.90;63.89;99359.16;3994881;87;21131;-85
2022/07/20 21:14:53;;;;;;;25.10;16.20;;;;;;;20.76;64.61;99363.08;4022972;87;21078;-84
2022/07/20 21:21:12;;;;;;;21.12;12.10;;;;;;;20.61;65.28;99364.62;4015280;86;21088;-84
2022/07/20 21:27:18;;;;;;;18.98;12.63;;;;;;;20.48;65.82;99354.61;4019185;87;21092;-85
2022/07/20 21:33:22;;;;;;;22.48;10.75;;;;;;;20.30;66.74;99363.98;4019760;87;21078;-84
2022/07/20 21:39:33;;;;;;;15.53;10.13;;;;;;;20.08;67.35;99371.94;4058966;86;21076;-84
2022/07/20 21:45:41;;;;;;;13.68;9.63;;;;;;;19.96;67.75;99371.21;3950756;89;21337;-84
2022/07/20 21:51:56;;;;;;;16.40;9.08;;;;;;;19.90;68.13;99377.09;4013068;87;21927;-83
2022/07/20 21:58:15;;;;;;;16.30;9.83;;;;;;;19.78;68.71;99377.75;4035335;86;21054;-84
2022/07/20 22:04:20;;;;;;;14.70;9.08;;;;;;;19.64;69.49;99371.84;3947443;89;22078;-84
2022/07/20 22:10:25;;;;;;;12.95;9.03;;;;;;;19.66;70.13;99372.80;4018594;87;21135;-84
2022/07/20 22:16:42;;;;;;;14.15;7.05;;;;;;;19.53;70.39;99371.27;4010863;87;22341;-84
2022/07/20 22:22:53;;;;;;;12.55;7.03;;;;;;;19.36;70.62;99366.03;3948445;89;21448;-84
2022/07/20 22:29:06;;;;;;;12.82;8.40;;;;;;;19.17;71.28;99376.48;4052031;86;21089;-83
2022/07/20 22:35:25;;;;;;;12.00;7.87;;;;;;;18.98;71.80;99377.97;4014103;87;21118;-83
2022/07/20 22:41:26;;;;;;;10.33;7.43;;;;;;;18.86;72.32;99380.55;4016716;87;21072;-84
2022/07/20 22:47:35;;;;;;;10.13;7.33;;;;;;;18.76;72.79;99380.12;4059830;86;21121;-84
2022/07/20 22:53:42;;;;;;;13.18;7.70;;;;;;;18.65;73.37;99387.23;3947200;89;21100;-84
2022/07/20 22:59:44;;;;;;;9.20;6.67;;;;;;;18.58;73.83;99374.85;3950345;88;21064;-83
2022/07/20 23:05:58;;;;;;;13.80;8.38;;;;;;;18.56;74.31;99378.05;4059017;86;21117;-83
2022/07/20 23:12:09;;;;;;;11.50;8.65;;;;;;;18.32;74.42;99384.69;3950768;89;21126;-84
2022/07/20 23:18:10;;;;;;;13.00;8.05;;;;;;;18.32;74.96;99382.53;4054670;86;21057;-83
2022/07/20 23:24:18;;;;;;;10.63;6.58;;;;;;;18.20;75.08;99383.87;3949608;89;21152;-84
2022/07/20 23:30:25;;;;;;;14.87;7.60;;;;;;;18.22;75.72;99383.45;4011897;87;21127;-84
2022/07/20 23:36:34;;;;;;;12.40;7.65;;;;;;;18.12;76.09;99385.16;4057713;86;21077;-84
2022/07/20 23:42:44;;;;;;;13.93;8.35;;;;;;;17.99;76.50;99385.55;4018492;87;21080;-84
2022/07/20 23:48:49;;;;;;;14.43;7.40;;;;;;;17.84;76.87;99373.05;4013273;87;21046;-84
2022/07/20 23:54:53;;;;;;;14.20;7.85;;;;;;;17.70;77.16;99371.84;4060180;86;21053;-84
